Terminal Aerodrome Forecast
Issued by NWS Paducah, KY

Home | Current Version | Previous Version | Text Only | Print | Product List | Glossary On
Versions: 1 2 3 4 5 6 7 8 9 10 11 12 13 14 15 16 17 18 19
000
FTUS43 KPAH 221739
TAFPAH
TAF
KPAH 221739Z 2218/2318 08006KT 4SM BR VCSH OVC006
     FM222300 13005KT P6SM VCSH BKN008 OVC018
     FM230230 15010KT 3SM -SHRA BR BKN040 OVC100
      TEMPO 2305/2308 1 1/2SM -TSRA BR BKN008CB
     FM231100 19011KT P6SM BKN011 OVC060=

USA.gov is the U.S. government's official web portal to all federal, state and local government web resources and services.